DLH419 KIAD-EDDF
Flight info
| Callsign | DLH419 |
|---|---|
| Flight time | N/A |
| Altitude | 37000 |
| Route | JCOBY4 SWANN DCT BROSS Q419 RBV Q22 FOXWD DCT WITCH DCT TOPPS N635A RIKAL/M081F390 NATW BEXET/N0460F390 DCT LIFFY UL975 WAL M16 DOLAS DCT NAVPI DCT NOLRU DCT DIXAT DIXAT1A |
| Aircraft | A346/H-SDE2E3FGHIJ3J4J5M1P2RWXYZ/LB1D1 |
Departure
| Time | 2026-05-07 00:13 |
|---|---|
| Airport | Washington Dulles International Airport (KIAD) |
Arrival
| Time | N/A |
|---|---|
| Airport | Frankfurt Main Airport (EDDF) |
| Time | Latitude | Longitude | Altitude | Speed | Heading |
|---|---|---|---|---|---|
| 2026-05-06 23:21 | 38.94942 | -77.45017 | 303 ft | 0 kts | 201° |
| 2026-05-07 00:01 | 38.94962 | -77.45008 | 301 ft | 4 kts | 197° |
| 2026-05-07 00:01 | 38.94988 | -77.45000 | 302 ft | 4 kts | 188° |
| 2026-05-07 00:01 | 38.95012 | -77.44997 | 301 ft | 1 kts | 181° |
| 2026-05-07 00:02 | 38.95025 | -77.44995 | 301 ft | 4 kts | 219° |
| 2026-05-07 00:02 | 38.95029 | -77.44985 | 302 ft | 4 kts | 264° |
| 2026-05-07 00:02 | 38.95029 | -77.44953 | 302 ft | 4 kts | 270° |
| 2026-05-07 00:02 | 38.95029 | -77.44919 | 303 ft | 3 kts | 270° |
| 2026-05-07 00:03 | 38.95029 | -77.44916 | 303 ft | 0 kts | 270° |
| 2026-05-07 00:06 | 38.95029 | -77.44923 | 303 ft | 2 kts | 270° |
| 2026-05-07 00:06 | 38.95029 | -77.44953 | 302 ft | 5 kts | 270° |
| 2026-05-07 00:06 | 38.95030 | -77.45008 | 302 ft | 8 kts | 270° |
| 2026-05-07 00:06 | 38.95030 | -77.45090 | 304 ft | 10 kts | 270° |
| 2026-05-07 00:07 | 38.95031 | -77.45193 | 304 ft | 13 kts | 270° |
| 2026-05-07 00:07 | 38.95032 | -77.45315 | 301 ft | 14 kts | 270° |
| 2026-05-07 00:07 | 38.95033 | -77.45426 | 300 ft | 7 kts | 270° |
| 2026-05-07 00:07 | 38.95033 | -77.45499 | 300 ft | 10 kts | 270° |
| 2026-05-07 00:08 | 38.95019 | -77.45587 | 303 ft | 11 kts | 220° |
| 2026-05-07 00:08 | 38.94940 | -77.45606 | 302 ft | 13 kts | 181° |
| 2026-05-07 00:08 | 38.94844 | -77.45606 | 302 ft | 15 kts | 179° |
| 2026-05-07 00:08 | 38.94737 | -77.45605 | 302 ft | 16 kts | 181° |
| 2026-05-07 00:09 | 38.94615 | -77.45608 | 302 ft | 19 kts | 181° |
| 2026-05-07 00:09 | 38.94477 | -77.45611 | 302 ft | 21 kts | 181° |
| 2026-05-07 00:09 | 38.94327 | -77.45612 | 302 ft | 22 kts | 180° |
| 2026-05-07 00:09 | 38.94164 | -77.45614 | 301 ft | 24 kts | 181° |
| 2026-05-07 00:10 | 38.93994 | -77.45618 | 302 ft | 21 kts | 180° |
| 2026-05-07 00:10 | 38.93841 | -77.45619 | 302 ft | 23 kts | 180° |
| 2026-05-07 00:10 | 38.93697 | -77.45593 | 302 ft | 19 kts | 142° |
| 2026-05-07 00:10 | 38.93633 | -77.45509 | 304 ft | 9 kts | 149° |
| 2026-05-07 00:11 | 38.93567 | -77.45509 | 303 ft | 11 kts | 196° |
| 2026-05-07 00:11 | 38.93488 | -77.45544 | 303 ft | 13 kts | 200° |
| 2026-05-07 00:11 | 38.93403 | -77.45594 | 304 ft | 14 kts | 226° |
| 2026-05-07 00:11 | 38.93393 | -77.45691 | 304 ft | 0 kts | 287° |
| 2026-05-07 00:12 | 38.93394 | -77.45695 | 304 ft | 1 kts | 287° |
| 2026-05-07 00:12 | 38.93425 | -77.45804 | 303 ft | 40 kts | 291° |
| 2026-05-07 00:12 | 38.93588 | -77.46354 | 308 ft | 97 kts | 291° |
| 2026-05-07 00:12 | 38.93869 | -77.47314 | 310 ft | 145 kts | 290° |
| 2026-05-07 00:13 | 38.94251 | -77.48600 | 363 ft | 179 kts | 289° |
| 2026-05-07 00:13 | 38.94691 | -77.49959 | 836 ft | 181 kts | 298° |
| 2026-05-07 00:13 | 38.95359 | -77.51107 | 1349 ft | 182 kts | 311° |
| 2026-05-07 00:13 | 38.96078 | -77.52184 | 1980 ft | 179 kts | 310° |
| 2026-05-07 00:14 | 38.96763 | -77.53253 | 2455 ft | 185 kts | 309° |
| 2026-05-07 00:14 | 38.97279 | -77.54055 | 2664 ft | 194 kts | 309° |
| 2026-05-07 00:14 | 38.98158 | -77.55395 | 2959 ft | 211 kts | 309° |
| 2026-05-07 00:14 | 38.99156 | -77.56879 | 3005 ft | 239 kts | 310° |
| 2026-05-07 00:15 | 39.00249 | -77.58514 | 3015 ft | 250 kts | 310° |
| 2026-05-07 00:15 | 39.01718 | -77.60747 | 3017 ft | 250 kts | 310° |
| 2026-05-07 00:15 | 39.02818 | -77.62456 | 3019 ft | 250 kts | 310° |
| 2026-05-07 00:15 | 39.03916 | -77.64177 | 3027 ft | 249 kts | 310° |
| 2026-05-07 00:16 | 39.05106 | -77.65863 | 3212 ft | 261 kts | 323° |
| 2026-05-07 00:16 | 39.06202 | -77.66586 | 3772 ft | 265 kts | 340° |
| 2026-05-07 00:16 | 39.07988 | -77.67061 | 4729 ft | 267 kts | 347° |
| 2026-05-07 00:16 | 39.09865 | -77.67362 | 5437 ft | 276 kts | 349° |
| 2026-05-07 00:17 | 39.11776 | -77.67602 | 6205 ft | 283 kts | 349° |
| 2026-05-07 00:17 | 39.13778 | -77.67807 | 7050 ft | 286 kts | 349° |
| 2026-05-07 00:17 | 39.15776 | -77.67968 | 7939 ft | 290 kts | 348° |
| 2026-05-07 00:17 | 39.17791 | -77.68032 | 8737 ft | 299 kts | 355° |
| 2026-05-07 00:18 | 39.19845 | -77.67224 | 9493 ft | 324 kts | 27° |
| 2026-05-07 00:18 | 39.21457 | -77.65120 | 10249 ft | 340 kts | 58° |
| 2026-05-07 00:18 | 39.22203 | -77.62155 | 10835 ft | 351 kts | 89° |
| 2026-05-07 00:18 | 39.21862 | -77.59047 | 11295 ft | 353 kts | 115° |
| 2026-05-07 00:19 | 39.20922 | -77.56061 | 11766 ft | 366 kts | 118° |
| 2026-05-07 00:19 | 39.19975 | -77.52913 | 12142 ft | 386 kts | 114° |
| 2026-05-07 00:19 | 39.19150 | -77.49514 | 12477 ft | 407 kts | 109° |
| 2026-05-07 00:19 | 39.18433 | -77.45893 | 12796 ft | 426 kts | 107° |
| 2026-05-07 00:20 | 39.17772 | -77.42099 | 13291 ft | 438 kts | 105° |
| 2026-05-07 00:20 | 39.17143 | -77.38294 | 13989 ft | 442 kts | 105° |
| 2026-05-07 00:20 | 39.16500 | -77.34395 | 14676 ft | 446 kts | 105° |
| 2026-05-07 00:20 | 39.15843 | -77.30449 | 15280 ft | 453 kts | 105° |
| 2026-05-07 00:21 | 39.15171 | -77.26446 | 15861 ft | 460 kts | 105° |
| 2026-05-07 00:21 | 39.14487 | -77.22405 | 16552 ft | 462 kts | 104° |
| 2026-05-07 00:21 | 39.13799 | -77.18349 | 17356 ft | 463 kts | 104° |
| 2026-05-07 00:21 | 39.13123 | -77.14273 | 17986 ft | 469 kts | 104° |
| 2026-05-07 00:22 | 39.12465 | -77.10125 | 18479 ft | 476 kts | 103° |
| 2026-05-07 00:22 | 39.11802 | -77.05910 | 18967 ft | 482 kts | 103° |
| 2026-05-07 00:22 | 39.11182 | -77.01642 | 19470 ft | 488 kts | 100° |
| 2026-05-07 00:22 | 39.10812 | -76.97270 | 19930 ft | 495 kts | 95° |
| 2026-05-07 00:23 | 39.10748 | -76.92815 | 20441 ft | 500 kts | 89° |
| 2026-05-07 00:23 | 39.10857 | -76.88310 | 20986 ft | 505 kts | 88° |
| 2026-05-07 00:23 | 39.11010 | -76.83765 | 21511 ft | 510 kts | 88° |
| 2026-05-07 00:23 | 39.11161 | -76.79173 | 22054 ft | 515 kts | 88° |
| 2026-05-07 00:24 | 39.11297 | -76.74537 | 22567 ft | 520 kts | 88° |
| 2026-05-07 00:24 | 39.11420 | -76.69849 | 23050 ft | 525 kts | 88° |
| 2026-05-07 00:24 | 39.11534 | -76.65113 | 23486 ft | 531 kts | 88° |
| 2026-05-07 00:24 | 39.11644 | -76.60331 | 23868 ft | 537 kts | 88° |
| 2026-05-07 00:25 | 39.11758 | -76.55499 | 24283 ft | 541 kts | 88° |
| 2026-05-07 00:25 | 39.12016 | -76.50641 | 24691 ft | 545 kts | 84° |
| 2026-05-07 00:25 | 39.12485 | -76.45766 | 25115 ft | 549 kts | 81° |
| 2026-05-07 00:25 | 39.13046 | -76.40887 | 25607 ft | 551 kts | 79° |
| 2026-05-07 00:26 | 39.13632 | -76.35996 | 26039 ft | 555 kts | 79° |
| 2026-05-07 00:26 | 39.14215 | -76.31057 | 26458 ft | 559 kts | 80° |
| 2026-05-07 00:26 | 39.14785 | -76.26074 | 26862 ft | 563 kts | 80° |
| 2026-05-07 00:26 | 39.15348 | -76.21054 | 27253 ft | 567 kts | 80° |
| 2026-05-07 00:27 | 39.15924 | -76.15996 | 27651 ft | 571 kts | 80° |
| 2026-05-07 00:27 | 39.16509 | -76.10906 | 28008 ft | 575 kts | 80° |
| 2026-05-07 00:27 | 39.17096 | -76.05801 | 28463 ft | 577 kts | 80° |
| 2026-05-07 00:27 | 39.17682 | -76.00669 | 28965 ft | 578 kts | 80° |
| 2026-05-07 00:28 | 39.18356 | -75.95573 | 29593 ft | 576 kts | 73° |
| 2026-05-07 00:28 | 39.19600 | -75.90680 | 30001 ft | 571 kts | 61° |
| 2026-05-07 00:28 | 39.21498 | -75.86222 | 30346 ft | 562 kts | 48° |
| 2026-05-07 00:28 | 39.23946 | -75.82381 | 30760 ft | 547 kts | 35° |
| 2026-05-07 00:29 | 39.26756 | -75.79151 | 31259 ft | 536 kts | 29° |
| 2026-05-07 00:29 | 39.29650 | -75.76151 | 31764 ft | 532 kts | 27° |
| 2026-05-07 00:30 | 39.38255 | -75.67108 | 33343 ft | 531 kts | 28° |
| 2026-05-07 00:30 | 39.41074 | -75.64018 | 33782 ft | 532 kts | 28° |